Time;durP1;ratioP1;P1;durP2;ratioP2;P2;SDS_P1;SDS_P2;PMS_P1;PMS_P2;Temp;Humidity;BMP_temperature;BMP_pressure;BME280_temperature;BME280_humidity;BME280_pressure;Samples;Min_cycle;Max_cycle;Signal;HPM_P1;HPM_P2
2023/12/28 00:00:12;;;;;;;;;;;4.70;98.70;;;;;;5023616;28;19991;-83
2023/12/28 00:02:37;;;;;;;;;;;4.80;98.60;;;;;;5022039;28;20032;-84
2023/12/28 00:05:03;;;;;;;;;;;4.90;98.50;;;;;;5023754;28;19913;-83
2023/12/28 00:07:29;;;;;;;;;;;4.90;98.40;;;;;;5023500;28;19962;-84
2023/12/28 00:09:54;;;;;;;;;;;4.80;98.80;;;;;;5023637;28;20179;-85
2023/12/28 00:12:22;;;;;;;;;;;4.80;98.70;;;;;;5023459;28;19936;-86
2023/12/28 00:14:48;;;;;;;;;;;4.80;98.60;;;;;;5023104;28;20369;-84
2023/12/28 00:17:14;;;;;;;;;;;4.80;98.50;;;;;;5022257;28;19924;-84
2023/12/28 00:19:39;;;;;;;;;;;4.80;98.50;;;;;;5023645;28;20422;-83
2023/12/28 00:22:05;;;;;;;;;;;4.80;98.50;;;;;;5023002;28;19920;-86
2023/12/28 00:24:30;;;;;;;;;;;4.80;98.40;;;;;;5023209;28;19909;-85
2023/12/28 00:26:56;;;;;;;;;;;4.80;98.50;;;;;;5023331;28;19921;-87
2023/12/28 00:29:21;;;;;;;;;;;4.70;98.50;;;;;;5021817;28;19971;-86
2023/12/28 00:31:47;;;;;;;;;;;4.90;98.40;;;;;;5019227;28;19955;-85
2023/12/28 00:34:12;;;;;;;;;;;4.80;98.30;;;;;;5023252;28;20405;-85
2023/12/28 00:36:38;;;;;;;;;;;4.80;98.40;;;;;;5023206;28;20352;-84
2023/12/28 00:39:03;;;;;;;;;;;4.70;98.30;;;;;;5023568;28;19909;-84
2023/12/28 00:41:29;;;;;;;;;;;4.80;98.40;;;;;;5023401;28;19952;-85
2023/12/28 00:43:54;;;;;;;;;;;4.80;98.30;;;;;;5023635;28;19995;-84
2023/12/28 00:46:20;;;;;;;;;;;4.80;98.20;;;;;;5020866;28;20012;-86
2023/12/28 00:48:45;;;;;;;;;;;4.70;98.40;;;;;;5022468;28;19913;-85
2023/12/28 00:51:11;;;;;;;;;;;4.60;98.50;;;;;;5017832;28;19983;-85
2023/12/28 00:53:36;;;;;;;;;;;4.70;98.60;;;;;;5023095;28;20029;-84
2023/12/28 00:56:02;;;;;;;;;;;4.60;98.50;;;;;;5022000;28;19920;-83
2023/12/28 00:58:28;;;;;;;;;;;4.70;98.50;;;;;;5022154;28;20465;-84
2023/12/28 01:00:55;;;;;;;;;;;4.70;98.30;;;;;;5022178;28;19915;-83
2023/12/28 01:03:21;;;;;;;;;;;4.80;98.20;;;;;;5023118;28;19920;-83
2023/12/28 01:05:50;;;;;;;;;;;4.80;98.20;;;;;;5021803;28;19917;-83
2023/12/28 01:08:16;;;;;;;;;;;4.70;98.30;;;;;;5012911;28;20483;-83
2023/12/28 01:10:42;;;;;;;;;;;4.70;98.50;;;;;;5021876;28;19909;-85
2023/12/28 01:13:07;;;;;;;;;;;4.70;98.60;;;;;;5022829;28;19920;-83
2023/12/28 01:15:33;;;;;;;;;;;4.70;98.60;;;;;;5022492;28;19913;-83
2023/12/28 01:17:58;;;;;;;;;;;4.60;98.70;;;;;;5022682;28;19935;-83
2023/12/28 01:20:24;;;;;;;;;;;4.60;98.90;;;;;;5022426;28;20635;-84
2023/12/28 01:22:50;;;;;;;;;;;4.50;99.00;;;;;;5022657;28;19920;-84
2023/12/28 01:25:15;;;;;;;;;;;4.50;99.10;;;;;;5025951;28;19986;-83
2023/12/28 01:27:41;;;;;;;;;;;4.50;99.10;;;;;;5022621;28;19916;-84
2023/12/28 01:30:07;;;;;;;;;;;4.40;99.20;;;;;;5021227;28;19939;-82
2023/12/28 01:32:32;;;;;;;;;;;4.30;99.40;;;;;;5014405;28;20003;-84
2023/12/28 01:34:58;;;;;;;;;;;4.40;99.50;;;;;;5022419;28;20418;-84
2023/12/28 01:37:24;;;;;;;;;;;4.40;99.30;;;;;;5021689;28;19912;-85
2023/12/28 01:39:49;;;;;;;;;;;4.60;99.20;;;;;;5022204;28;19963;-83
2023/12/28 01:42:14;;;;;;;;;;;4.50;99.10;;;;;;5020355;28;19955;-86
2023/12/28 01:44:40;;;;;;;;;;;4.40;99.30;;;;;;5021078;28;19920;-83
2023/12/28 01:47:06;;;;;;;;;;;4.40;99.30;;;;;;5021783;28;19967;-82
2023/12/28 01:49:33;;;;;;;;;;;4.40;99.60;;;;;;5021100;28;20634;-82
2023/12/28 01:52:00;;;;;;;;;;;4.40;99.60;;;;;;5022166;28;19916;-82
2023/12/28 01:54:25;;;;;;;;;;;4.30;99.70;;;;;;5021638;28;19944;-83
2023/12/28 01:56:51;;;;;;;;;;;4.20;99.90;;;;;;5023464;28;20444;-82
2023/12/28 01:59:18;;;;;;;;;;;4.30;99.90;;;;;;5025586;28;19913;-82
2023/12/28 02:01:44;;;;;;;;;;;4.30;99.90;;;;;;5024356;28;20384;-82
2023/12/28 02:04:10;;;;;;;;;;;4.30;99.90;;;;;;5025748;28;20592;-82
2023/12/28 02:06:36;;;;;;;;;;;4.30;99.90;;;;;;5025288;28;19932;-82
2023/12/28 02:09:01;;;;;;;;;;;4.20;99.90;;;;;;5026032;28;19978;-82
2023/12/28 02:11:27;;;;;;;;;;;4.20;99.90;;;;;;5026055;28;19948;-82
2023/12/28 02:13:53;;;;;;;;;;;4.20;99.90;;;;;;5027267;28;19964;-82
2023/12/28 02:16:22;;;;;;;;;;;4.10;99.90;;;;;;5025519;28;19913;-82
2023/12/28 02:18:49;;;;;;;;;;;4.10;99.90;;;;;;5024765;28;19991;-82
2023/12/28 02:21:15;;;;;;;;;;;4.10;99.90;;;;;;5025545;28;19912;-82
2023/12/28 02:23:48;;;;;;;;;;;4.10;99.90;;;;;;5025275;28;19920;-82
2023/12/28 02:26:13;;;;;;;;;;;4.10;99.90;;;;;;5025434;28;19929;-82
2023/12/28 02:28:39;;;;;;;;;;;4.20;99.90;;;;;;5025357;28;20064;-82
2023/12/28 02:31:06;;;;;;;;;;;4.10;99.90;;;;;;5025674;28;20430;-82
2023/12/28 02:33:31;;;;;;;;;;;4.10;99.90;;;;;;5020831;28;20636;-82
2023/12/28 02:35:58;;;;;;;;;;;4.10;99.90;;;;;;5025112;28;20003;-83
2023/12/28 02:38:25;;;;;;;;;;;4.20;99.90;;;;;;5020338;28;20422;-83
2023/12/28 02:40:50;;;;;;;;;;;4.20;99.90;;;;;;5023931;28;20654;-83
2023/12/28 02:43:16;;;;;;;;;;;4.20;99.90;;;;;;5031508;28;19924;-82
2023/12/28 02:45:42;;;;;;;;;;;4.20;99.90;;;;;;5027874;28;19913;-82
2023/12/28 02:48:07;;;;;;;;;;;4.10;99.90;;;;;;5025185;28;20424;-82
2023/12/28 02:50:33;;;;;;;;;;;4.10;99.90;;;;;;5023244;28;20530;-83
2023/12/28 02:52:59;;;;;;;;;;;4.10;99.90;;;;;;5025093;28;19912;-83
2023/12/28 02:55:25;;;;;;;;;;;4.00;99.90;;;;;;5025071;28;19920;-83
2023/12/28 02:57:51;;;;;;;;;;;4.00;99.90;;;;;;5025862;28;20499;-82
2023/12/28 03:00:17;;;;;;;;;;;4.00;99.90;;;;;;5025039;28;19920;-83
2023/12/28 03:02:43;;;;;;;;;;;4.10;99.90;;;;;;5024439;28;19924;-82
2023/12/28 03:05:08;;;;;;;;;;;4.10;99.90;;;;;;5024376;28;19917;-82
2023/12/28 03:07:34;;;;;;;;;;;4.10;99.90;;;;;;5024143;28;20277;-83
2023/12/28 03:10:00;;;;;;;;;;;4.30;99.90;;;;;;5024320;28;20658;-83
2023/12/28 03:12:26;;;;;;;;;;;4.30;99.90;;;;;;5022756;28;19924;-83
2023/12/28 03:14:52;;;;;;;;;;;4.40;99.90;;;;;;5024342;28;19986;-82
2023/12/28 03:17:17;;;;;;;;;;;4.40;99.90;;;;;;5024634;28;20064;-82
2023/12/28 03:19:43;;;;;;;;;;;4.40;99.90;;;;;;5024748;28;20692;-83
2023/12/28 03:22:08;;;;;;;;;;;4.30;99.90;;;;;;5024364;28;19944;-82
2023/12/28 03:24:36;;;;;;;;;;;4.30;99.90;;;;;;5023981;28;19913;-82
2023/12/28 03:27:01;;;;;;;;;;;4.30;99.90;;;;;;5039138;28;20832;-82
2023/12/28 03:29:27;;;;;;;;;;;4.20;99.90;;;;;;5036396;28;19913;-81
2023/12/28 03:31:53;;;;;;;;;;;4.20;99.90;;;;;;5024358;28;19992;-82
2023/12/28 03:34:18;;;;;;;;;;;4.30;99.90;;;;;;5024570;28;20443;-82
2023/12/28 03:36:44;;;;;;;;;;;4.40;99.90;;;;;;5023760;28;19913;-82
2023/12/28 03:39:09;;;;;;;;;;;4.40;99.90;;;;;;5024357;28;19932;-82
2023/12/28 03:41:35;;;;;;;;;;;4.50;99.90;;;;;;5026523;28;19964;-82
2023/12/28 03:44:00;;;;;;;;;;;4.50;99.90;;;;;;5023994;28;19975;-82
2023/12/28 03:46:26;;;;;;;;;;;4.50;99.90;;;;;;5023610;28;19917;-82
2023/12/28 03:48:55;;;;;;;;;;;4.40;99.90;;;;;;5021226;28;19959;-82
2023/12/28 03:51:20;;;;;;;;;;;4.50;99.90;;;;;;5006203;28;19916;-82
2023/12/28 03:53:46;;;;;;;;;;;4.60;99.90;;;;;;5018071;28;19913;-82
2023/12/28 03:56:18;;;;;;;;;;;4.70;99.90;;;;;;5019211;28;20008;-82
2023/12/28 03:58:44;;;;;;;;;;;4.70;99.90;;;;;;5023798;28;19959;-82
2023/12/28 04:01:09;;;;;;;;;;;4.80;99.90;;;;;;5023698;28;20519;-82
2023/12/28 04:03:35;;;;;;;;;;;4.90;99.90;;;;;;5024739;28;19943;-82
2023/12/28 04:06:00;;;;;;;;;;;4.90;99.90;;;;;;5024242;28;20442;-82
2023/12/28 04:08:26;;;;;;;;;;;5.00;99.90;;;;;;5024509;28;19913;-82
2023/12/28 04:10:51;;;;;;;;;;;5.00;99.90;;;;;;5023934;28;19966;-82
2023/12/28 04:13:17;;;;;;;;;;;4.90;99.90;;;;;;5024090;28;19949;-82
2023/12/28 04:15:43;;;;;;;;;;;4.90;99.90;;;;;;5023442;28;19968;-82
2023/12/28 04:18:09;;;;;;;;;;;4.90;99.90;;;;;;5023226;28;20030;-82
2023/12/28 04:20:34;;;;;;;;;;;4.90;99.90;;;;;;5026620;28;20321;-82
2023/12/28 04:23:00;;;;;;;;;;;4.90;99.90;;;;;;5023651;28;20351;-82
2023/12/28 04:25:25;;;;;;;;;;;5.00;99.90;;;;;;5022982;28;20740;-81
2023/12/28 04:27:51;;;;;;;;;;;5.00;99.90;;;;;;5023613;28;19921;-81
2023/12/28 04:30:16;;;;;;;;;;;5.00;99.90;;;;;;5021591;28;19994;-82
2023/12/28 04:32:42;;;;;;;;;;;5.00;99.90;;;;;;5038234;28;20358;-82
2023/12/28 04:35:07;;;;;;;;;;;5.10;99.90;;;;;;5022796;28;20292;-82
2023/12/28 04:37:34;;;;;;;;;;;5.10;99.90;;;;;;5022243;28;19909;-82
2023/12/28 04:39:59;;;;;;;;;;;5.10;99.90;;;;;;5022708;28;20331;-82
2023/12/28 04:42:25;;;;;;;;;;;5.10;99.90;;;;;;5021414;28;19909;-82
2023/12/28 04:44:50;;;;;;;;;;;5.10;99.90;;;;;;5022733;28;19913;-82
2023/12/28 04:47:16;;;;;;;;;;;5.10;99.90;;;;;;5022845;28;19920;-82
2023/12/28 04:49:41;;;;;;;;;;;5.10;99.90;;;;;;5014375;28;19914;-82
2023/12/28 04:52:07;;;;;;;;;;;5.10;99.90;;;;;;5037346;28;20399;-82
2023/12/28 04:54:33;;;;;;;;;;;5.00;99.90;;;;;;5022674;28;19915;-82
2023/12/28 04:56:59;;;;;;;;;;;5.00;99.90;;;;;;5023678;28;19916;-82
2023/12/28 04:59:25;;;;;;;;;;;5.00;99.90;;;;;;5021214;28;19909;-83
2023/12/28 05:01:50;;;;;;;;;;;5.00;99.90;;;;;;5022301;28;19921;-82
2023/12/28 05:04:16;;;;;;;;;;;5.00;99.90;;;;;;5037735;28;19921;-82
2023/12/28 05:06:41;;;;;;;;;;;5.00;99.90;;;;;;5021338;28;19928;-82
2023/12/28 05:09:07;;;;;;;;;;;5.00;99.90;;;;;;5022488;28;19913;-82
2023/12/28 05:11:33;;;;;;;;;;;5.00;99.90;;;;;;5022668;28;19934;-82
2023/12/28 05:13:58;;;;;;;;;;;4.90;99.90;;;;;;5023021;28;19975;-82
2023/12/28 05:16:24;;;;;;;;;;;4.90;99.90;;;;;;5022037;28;19924;-81
2023/12/28 05:18:49;;;;;;;;;;;5.00;99.90;;;;;;5022492;28;19924;-82
2023/12/28 05:21:15;;;;;;;;;;;5.00;99.90;;;;;;5022300;28;19913;-82
2023/12/28 05:23:40;;;;;;;;;;;5.00;99.90;;;;;;5022563;28;19966;-81
2023/12/28 05:26:06;;;;;;;;;;;5.10;99.90;;;;;;5022238;28;19970;-82
2023/12/28 05:28:31;;;;;;;;;;;5.00;99.90;;;;;;5022087;28;19917;-82
2023/12/28 05:30:58;;;;;;;;;;;5.10;99.90;;;;;;5022359;28;20015;-82
2023/12/28 05:33:27;;;;;;;;;;;5.10;99.90;;;;;;5022132;28;19908;-82
2023/12/28 05:35:53;;;;;;;;;;;5.20;99.90;;;;;;5015049;28;19988;-82
2023/12/28 05:38:18;;;;;;;;;;;5.20;99.90;;;;;;5022497;28;19919;-82
2023/12/28 05:40:47;;;;;;;;;;;5.20;99.90;;;;;;5021789;28;20447;-81
2023/12/28 05:43:12;;;;;;;;;;;5.10;99.90;;;;;;5022108;28;19959;-82
2023/12/28 05:45:38;;;;;;;;;;;5.10;99.90;;;;;;5022024;28;20019;-81
2023/12/28 05:48:03;;;;;;;;;;;5.10;99.90;;;;;;5021816;28;20011;-81
2023/12/28 05:50:29;;;;;;;;;;;5.10;99.90;;;;;;5020059;28;20032;-82
2023/12/28 05:52:55;;;;;;;;;;;5.10;99.90;;;;;;5021842;28;19959;-82
2023/12/28 05:55:20;;;;;;;;;;;5.20;99.90;;;;;;5022034;28;19913;-82
2023/12/28 05:57:46;;;;;;;;;;;5.30;99.90;;;;;;5021989;28;20027;-81
2023/12/28 06:00:12;;;;;;;;;;;5.30;99.90;;;;;;5020163;28;20037;-82
2023/12/28 06:02:37;;;;;;;;;;;5.30;99.90;;;;;;5020927;28;19925;-82
2023/12/28 06:05:03;;;;;;;;;;;5.30;99.90;;;;;;5021746;28;19913;-82
2023/12/28 06:07:28;;;;;;;;;;;5.30;99.90;;;;;;5021722;28;19944;-82
2023/12/28 06:09:54;;;;;;;;;;;5.30;99.90;;;;;;5021587;28;19913;-82
2023/12/28 06:12:20;;;;;;;;;;;5.30;99.90;;;;;;5036781;28;19913;-82
2023/12/28 06:14:45;;;;;;;;;;;5.40;99.90;;;;;;5020109;28;19913;-82
2023/12/28 06:17:11;;;;;;;;;;;5.40;99.90;;;;;;5020882;28;19913;-82
2023/12/28 06:19:36;;;;;;;;;;;5.50;99.90;;;;;;5021480;28;19912;-82
2023/12/28 06:22:02;;;;;;;;;;;5.40;99.90;;;;;;5024095;28;20466;-82
2023/12/28 06:24:27;;;;;;;;;;;5.40;99.90;;;;;;5021465;28;20666;-82
2023/12/28 06:26:53;;;;;;;;;;;5.50;99.90;;;;;;5018966;28;19999;-82
2023/12/28 06:29:18;;;;;;;;;;;5.50;99.90;;;;;;5022020;28;19967;-82
2023/12/28 06:31:44;;;;;;;;;;;5.40;99.90;;;;;;5021875;28;19959;-82
2023/12/28 06:34:09;;;;;;;;;;;5.40;99.90;;;;;;5021612;28;20380;-82
2023/12/28 06:36:35;;;;;;;;;;;5.40;99.90;;;;;;5026495;28;19913;-82
2023/12/28 06:39:01;;;;;;;;;;;5.40;99.90;;;;;;5020166;28;20534;-82
2023/12/28 06:41:26;;;;;;;;;;;5.30;99.90;;;;;;5022049;28;19924;-82
2023/12/28 06:43:52;;;;;;;;;;;5.40;99.90;;;;;;5023523;28;20390;-82
2023/12/28 06:46:18;;;;;;;;;;;5.40;99.90;;;;;;5024057;28;19928;-81
2023/12/28 06:48:44;;;;;;;;;;;5.40;99.90;;;;;;5023834;28;20000;-81
2023/12/28 06:51:15;;;;;;;;;;;5.40;99.90;;;;;;5013544;28;19912;-82
2023/12/28 06:53:41;;;;;;;;;;;5.40;99.90;;;;;;5025731;28;19959;-81
2023/12/28 06:56:06;;;;;;;;;;;5.40;99.90;;;;;;5025548;28;20454;-81
2023/12/28 06:58:32;;;;;;;;;;;5.40;99.90;;;;;;5024800;28;19913;-82
2023/12/28 07:00:58;;;;;;;;;;;5.50;99.90;;;;;;5022811;28;20671;-81
2023/12/28 07:03:25;;;;;;;;;;;5.50;99.90;;;;;;5023788;28;20031;-82
2023/12/28 07:05:51;;;;;;;;;;;5.60;99.90;;;;;;5018134;28;19920;-82
2023/12/28 07:08:16;;;;;;;;;;;5.60;99.90;;;;;;5039759;28;20191;-82
2023/12/28 07:10:42;;;;;;;;;;;5.60;99.90;;;;;;5025280;28;20027;-82
2023/12/28 07:13:08;;;;;;;;;;;5.70;99.90;;;;;;5025052;28;20590;-82
2023/12/28 07:15:34;;;;;;;;;;;5.70;99.90;;;;;;5024842;28;20300;-82
2023/12/28 07:17:59;;;;;;;;;;;5.80;99.90;;;;;;5024580;28;19913;-81
2023/12/28 07:20:25;;;;;;;;;;;5.90;99.90;;;;;;5025130;28;20312;-81
2023/12/28 07:22:50;;;;;;;;;;;6.00;99.90;;;;;;5024868;28;20518;-81
2023/12/28 07:25:16;;;;;;;;;;;6.00;99.90;;;;;;5024052;28;20470;-82
2023/12/28 07:27:41;;;;;;;;;;;5.90;99.90;;;;;;5024778;28;19921;-81
2023/12/28 07:30:08;;;;;;;;;;;6.00;99.90;;;;;;5024507;28;19913;-81
2023/12/28 07:32:34;;;;;;;;;;;6.00;99.90;;;;;;5024882;28;19917;-82
2023/12/28 07:35:00;;;;;;;;;;;5.90;99.90;;;;;;5024071;28;20007;-81
2023/12/28 07:37:25;;;;;;;;;;;5.90;99.90;;;;;;5024395;28;19919;-82
2023/12/28 07:39:51;;;;;;;;;;;5.80;99.90;;;;;;5024065;28;20372;-82
2023/12/28 07:42:16;;;;;;;;;;;5.70;99.90;;;;;;5024167;28;19913;-82
2023/12/28 07:44:42;;;;;;;;;;;5.60;99.90;;;;;;5024394;28;20371;-82
2023/12/28 07:47:08;;;;;;;;;;;5.60;99.90;;;;;;5022396;28;19995;-82
2023/12/28 07:49:33;;;;;;;;;;;5.50;99.90;;;;;;5021002;28;19913;-82
2023/12/28 07:51:59;;;;;;;;;;;5.60;99.90;;;;;;5023742;28;19913;-81
2023/12/28 07:54:24;;;;;;;;;;;5.50;99.90;;;;;;5023115;28;19920;-82
2023/12/28 07:56:50;;;;;;;;;;;5.60;99.90;;;;;;5022674;28;19909;-82
2023/12/28 07:59:15;;;;;;;;;;;5.60;99.90;;;;;;5022562;28;19921;-81
2023/12/28 08:01:42;;;;;;;;;;;5.70;99.90;;;;;;5024280;28;19925;-82
2023/12/28 08:04:08;;;;;;;;;;;5.70;99.90;;;;;;5012272;28;19920;-82
2023/12/28 08:06:33;;;;;;;;;;;5.80;99.90;;;;;;5016076;28;19936;-82
2023/12/28 08:09:00;;;;;;;;;;;5.80;99.90;;;;;;5024304;28;20577;-83
2023/12/28 08:11:29;;;;;;;;;;;5.90;99.90;;;;;;5024366;28;20370;-82
2023/12/28 08:13:54;;;;;;;;;;;6.00;99.90;;;;;;5023714;28;19940;-82
2023/12/28 08:16:20;;;;;;;;;;;5.90;99.90;;;;;;5038795;28;20028;-79
2023/12/28 08:18:45;;;;;;;;;;;5.90;99.90;;;;;;5021154;28;19921;-80
2023/12/28 08:21:11;;;;;;;;;;;5.90;99.90;;;;;;5023331;28;19952;-81
2023/12/28 08:23:36;;;;;;;;;;;6.00;99.90;;;;;;5020605;28;19908;-79
2023/12/28 08:26:02;;;;;;;;;;;6.10;99.90;;;;;;5022639;28;19944;-81
2023/12/28 08:28:28;;;;;;;;;;;6.10;99.90;;;;;;5022096;28;19920;-79
2023/12/28 08:30:54;;;;;;;;;;;6.10;99.90;;;;;;5022312;28;20642;-79
2023/12/28 08:33:20;;;;;;;;;;;6.20;99.90;;;;;;5028620;28;19917;-79
2023/12/28 08:35:45;;;;;;;;;;;6.20;99.90;;;;;;5027304;28;19913;-79
2023/12/28 08:38:11;;;;;;;;;;;6.40;99.90;;;;;;5023684;28;19913;-80
2023/12/28 08:40:36;;;;;;;;;;;6.60;99.90;;;;;;5012332;28;19914;-80
2023/12/28 08:43:02;;;;;;;;;;;6.70;99.80;;;;;;5021604;28;19909;-79
2023/12/28 08:45:27;;;;;;;;;;;6.90;99.90;;;;;;5012262;28;19972;-80
2023/12/28 08:47:53;;;;;;;;;;;7.20;99.90;;;;;;5009840;28;19928;-80
2023/12/28 08:50:19;;;;;;;;;;;7.00;99.90;;;;;;5021918;28;19962;-80
2023/12/28 08:52:44;;;;;;;;;;;6.80;99.90;;;;;;5020814;28;19917;-77
2023/12/28 08:55:10;;;;;;;;;;;6.80;99.90;;;;;;5030351;28;19924;-80
2023/12/28 08:57:35;;;;;;;;;;;6.80;99.90;;;;;;5025371;28;19986;-80
2023/12/28 09:00:02;;;;;;;;;;;6.90;99.90;;;;;;5020910;28;19913;-80
2023/12/28 09:02:28;;;;;;;;;;;7.00;99.90;;;;;;5023457;28;19925;-80
2023/12/28 09:04:54;;;;;;;;;;;7.00;99.90;;;;;;5026269;28;20447;-80
2023/12/28 09:07:19;;;;;;;;;;;7.10;99.90;;;;;;5021270;28;20372;-80
2023/12/28 09:09:45;;;;;;;;;;;7.40;99.90;;;;;;5012275;28;19956;-80
2023/12/28 09:12:11;;;;;;;;;;;7.60;99.90;;;;;;5024002;28;20372;-81
2023/12/28 09:14:36;;;;;;;;;;;7.60;99.90;;;;;;5023299;28;19917;-82
2023/12/28 09:17:02;;;;;;;;;;;7.70;99.90;;;;;;5017403;28;19913;-83
2023/12/28 09:19:28;;;;;;;;;;;7.70;99.90;;;;;;5011967;28;19925;-82
2023/12/28 09:21:53;;;;;;;;;;;7.40;99.90;;;;;;5025201;28;19934;-84
2023/12/28 09:24:19;;;;;;;;;;;7.20;99.90;;;;;;5015305;28;19920;-83
2023/12/28 09:26:44;;;;;;;;;;;6.90;99.90;;;;;;5026866;28;19931;-83
2023/12/28 09:29:10;;;;;;;;;;;6.90;99.90;;;;;;5020864;28;19943;-84
2023/12/28 09:31:37;;;;;;;;;;;6.90;99.90;;;;;;5022157;28;19917;-87
2023/12/28 09:34:04;;;;;;;;;;;6.90;99.90;;;;;;5022568;28;20568;-86
2023/12/28 09:36:30;;;;;;;;;;;7.10;99.90;;;;;;5021692;28;19945;-83
2023/12/28 09:38:55;;;;;;;;;;;7.10;99.90;;;;;;5022605;28;19948;-85
2023/12/28 09:41:22;;;;;;;;;;;7.20;99.90;;;;;;5021857;28;20302;-85
2023/12/28 09:43:54;;;;;;;;;;;7.30;99.90;;;;;;5025704;28;20001;-84
2023/12/28 09:46:20;;;;;;;;;;;7.30;99.90;;;;;;5016787;28;19995;-87
2023/12/28 09:48:46;;;;;;;;;;;7.40;99.90;;;;;;5019553;28;19931;-88
2023/12/28 09:51:12;;;;;;;;;;;7.60;99.90;;;;;;5019406;28;19987;-87
2023/12/28 09:53:38;;;;;;;;;;;7.80;99.90;;;;;;5020872;28;19913;-87
2023/12/28 09:56:04;;;;;;;;;;;8.00;99.90;;;;;;5022793;28;20456;-85
2023/12/28 09:58:32;;;;;;;;;;;8.30;99.70;;;;;;5021676;28;19913;-84
2023/12/28 10:00:59;;;;;;;;;;;8.40;99.40;;;;;;5036125;28;20969;-86
2023/12/28 10:03:24;;;;;;;;;;;8.50;99.20;;;;;;5021551;28;19921;-88
2023/12/28 10:05:50;;;;;;;;;;;8.80;98.90;;;;;;5020778;28;20602;-84
2023/12/28 10:08:16;;;;;;;;;;;8.90;98.30;;;;;;5023677;28;19925;-88
2023/12/28 10:10:42;;;;;;;;;;;9.00;97.90;;;;;;5020067;28;20043;-83
2023/12/28 10:13:09;;;;;;;;;;;9.00;97.70;;;;;;5021762;28;19913;-89
2023/12/28 10:15:37;;;;;;;;;;;8.90;98.90;;;;;;5018119;28;19913;-90
2023/12/28 10:18:04;;;;;;;;;;;8.90;98.30;;;;;;5022571;28;19913;-91
2023/12/28 10:20:30;;;;;;;;;;;8.70;98.80;;;;;;5032005;28;19913;-88
2023/12/28 10:22:57;;;;;;;;;;;8.50;99.40;;;;;;5023616;28;20031;-91
2023/12/28 10:25:23;;;;;;;;;;;8.40;99.50;;;;;;5022596;28;20023;-84
2023/12/28 10:27:52;;;;;;;;;;;8.40;99.70;;;;;;5024234;28;20318;-88
2023/12/28 10:30:19;;;;;;;;;;;8.50;99.50;;;;;;5025869;28;19909;-85
2023/12/28 10:32:45;;;;;;;;;;;8.50;99.60;;;;;;5015411;28;19991;-85
2023/12/28 10:35:10;;;;;;;;;;;8.80;99.80;;;;;;5032565;28;20008;-84
2023/12/28 10:37:39;;;;;;;;;;;8.90;99.80;;;;;;5023818;28;19923;-87
2023/12/28 10:40:06;;;;;;;;;;;9.00;99.30;;;;;;5023115;28;19913;-84
2023/12/28 10:42:33;;;;;;;;;;;9.30;99.10;;;;;;5023332;28;19912;-84
2023/12/28 10:45:03;;;;;;;;;;;9.40;98.90;;;;;;5034838;28;20039;-84
2023/12/28 10:47:31;;;;;;;;;;;9.40;99.30;;;;;;5026480;28;20032;-84
2023/12/28 10:49:58;;;;;;;;;;;9.40;99.40;;;;;;5016624;28;19929;-86
2023/12/28 10:52:27;;;;;;;;;;;9.50;99.40;;;;;;5025767;28;19909;-83
2023/12/28 10:55:18;;;;;;;;;;;9.60;99.90;;;;;;5022581;28;19924;-82
2023/12/28 10:57:58;;;;;;;;;;;9.80;99.60;;;;;;5020936;28;20396;-77
2023/12/28 11:00:25;;;;;;;;;;;9.80;99.80;;;;;;5029304;28;20054;-80
2023/12/28 11:02:56;;;;;;;;;;;9.80;99.80;;;;;;5023844;28;20672;-80
2023/12/28 11:05:22;;;;;;;;;;;10.20;99.90;;;;;;5019413;28;19912;-77
2023/12/28 11:07:49;;;;;;;;;;;10.40;99.90;;;;;;5023758;28;20415;-80
2023/12/28 11:10:16;;;;;;;;;;;10.40;99.20;;;;;;5023083;28;19921;-81
2023/12/28 11:12:42;;;;;;;;;;;10.50;99.90;;;;;;5023107;28;20004;-83
2023/12/28 11:15:09;;;;;;;;;;;10.70;99.80;;;;;;5039373;28;20372;-83
2023/12/28 11:17:36;;;;;;;;;;;10.80;99.30;;;;;;5021795;28;19941;-84
2023/12/28 11:20:02;;;;;;;;;;;10.80;99.40;;;;;;5020918;28;19925;-81
2023/12/28 11:22:29;;;;;;;;;;;10.80;98.90;;;;;;5023296;28;20018;-82
2023/12/28 11:24:55;;;;;;;;;;;10.90;99.20;;;;;;5025845;28;19919;-84
2023/12/28 11:27:21;;;;;;;;;;;11.00;98.90;;;;;;5017945;28;19921;-82
2023/12/28 11:29:51;;;;;;;;;;;10.90;98.30;;;;;;5023427;28;20382;-81
2023/12/28 11:32:19;;;;;;;;;;;10.90;98.10;;;;;;5027213;28;20104;-82
2023/12/28 11:34:44;;;;;;;;;;;10.90;97.50;;;;;;5019118;28;19991;-82
2023/12/28 11:37:18;;;;;;;;;;;10.90;98.20;;;;;;5023381;28;19909;-82
2023/12/28 11:39:44;;;;;;;;;;;10.90;98.20;;;;;;5024649;28;19920;-82
2023/12/28 11:42:10;;;;;;;;;;;11.00;97.90;;;;;;5023215;28;19921;-83
2023/12/28 11:44:39;;;;;;;;;;;11.00;97.50;;;;;;5017632;28;20300;-82
2023/12/28 11:47:14;;;;;;;;;;;11.00;97.80;;;;;;5020614;28;19946;-81
2023/12/28 11:49:40;;;;;;;;;;;11.10;97.90;;;;;;5023029;28;19925;-82
2023/12/28 11:52:06;;;;;;;;;;;11.10;98.30;;;;;;5022537;28;19920;-82
2023/12/28 11:54:32;;;;;;;;;;;11.20;97.40;;;;;;5021440;28;20156;-83
2023/12/28 11:56:57;;;;;;;;;;;11.20;98.20;;;;;;5042044;28;20390;-82
2023/12/28 11:59:23;;;;;;;;;;;11.20;97.40;;;;;;5019040;28;19913;-83
2023/12/28 12:01:49;;;;;;;;;;;11.10;97.40;;;;;;5021828;28;20419;-82
2023/12/28 12:04:15;;;;;;;;;;;11.20;97.00;;;;;;5017701;28;20729;-82
2023/12/28 12:06:40;;;;;;;;;;;11.10;96.80;;;;;;5024356;28;19928;-82
2023/12/28 12:09:10;;;;;;;;;;;11.10;96.60;;;;;;5020673;28;20419;-85
2023/12/28 12:11:37;;;;;;;;;;;11.20;96.50;;;;;;5018798;28;19920;-82
2023/12/28 12:14:06;;;;;;;;;;;11.20;96.30;;;;;;5021691;28;20031;-81
2023/12/28 12:16:31;;;;;;;;;;;11.30;95.90;;;;;;5020901;28;19913;-82
2023/12/28 12:18:58;;;;;;;;;;;11.20;96.40;;;;;;5021923;28;19920;-81
2023/12/28 12:21:24;;;;;;;;;;;11.30;96.30;;;;;;5018355;28;19913;-83
2023/12/28 12:23:50;;;;;;;;;;;11.30;96.20;;;;;;5026050;28;20578;-82
2023/12/28 12:26:18;;;;;;;;;;;11.20;96.30;;;;;;5021900;28;20010;-82
2023/12/28 12:28:44;;;;;;;;;;;11.10;96.30;;;;;;5024276;28;19912;-83
2023/12/28 12:31:10;;;;;;;;;;;11.10;96.70;;;;;;5022569;28;19913;-82
2023/12/28 12:33:36;;;;;;;;;;;11.00;96.50;;;;;;5023160;28;19913;-82
2023/12/28 12:36:02;;;;;;;;;;;11.00;96.60;;;;;;5020746;28;19948;-83
2023/12/28 12:38:27;;;;;;;;;;;11.00;96.90;;;;;;5022336;28;19986;-81
2023/12/28 12:40:53;;;;;;;;;;;10.90;97.40;;;;;;5023140;28;20015;-81
2023/12/28 12:43:19;;;;;;;;;;;10.90;98.10;;;;;;5025662;28;19952;-83
2023/12/28 12:45:45;;;;;;;;;;;10.80;99.40;;;;;;5019742;28;19913;-82
2023/12/28 12:48:11;;;;;;;;;;;10.70;99.00;;;;;;5022225;28;19920;-79
2023/12/28 12:50:39;;;;;;;;;;;10.70;99.00;;;;;;5019289;28;19917;-81
2023/12/28 12:53:05;;;;;;;;;;;10.70;99.30;;;;;;5021459;28;19916;-83
2023/12/28 12:55:30;;;;;;;;;;;10.60;99.00;;;;;;5025467;28;20594;-79
2023/12/28 12:57:57;;;;;;;;;;;10.60;98.90;;;;;;5021663;28;19913;-80
2023/12/28 13:00:23;;;;;;;;;;;10.70;99.10;;;;;;5018060;28;19920;-79
2023/12/28 13:02:56;;;;;;;;;;;10.60;99.00;;;;;;5025387;28;20673;-81
2023/12/28 13:05:23;;;;;;;;;;;10.70;99.60;;;;;;5020882;28;19919;-82
2023/12/28 13:07:49;;;;;;;;;;;10.70;99.10;;;;;;5022336;28;19924;-81
2023/12/28 13:10:15;;;;;;;;;;;10.80;99.20;;;;;;5016544;28;19909;-79
2023/12/28 13:12:40;;;;;;;;;;;10.80;98.70;;;;;;5021138;28;20436;-80
2023/12/28 13:15:06;;;;;;;;;;;10.90;98.50;;;;;;5022552;28;19924;-80
2023/12/28 13:17:32;;;;;;;;;;;10.90;98.50;;;;;;5022610;28;20014;-79
2023/12/28 13:19:57;;;;;;;;;;;10.90;98.50;;;;;;5023020;28;19912;-81
2023/12/28 13:22:23;;;;;;;;;;;10.80;98.20;;;;;;5020827;28;19908;-80
2023/12/28 13:24:48;;;;;;;;;;;10.80;98.10;;;;;;5022259;28;19909;-80
2023/12/28 13:27:14;;;;;;;;;;;10.90;98.40;;;;;;5023452;28;19921;-79
2023/12/28 13:29:40;;;;;;;;;;;11.00;98.10;;;;;;5022489;28;19987;-80
2023/12/28 13:32:05;;;;;;;;;;;11.00;98.00;;;;;;5023051;28;19905;-80
2023/12/28 13:34:31;;;;;;;;;;;11.00;97.90;;;;;;5020477;28;19948;-80
2023/12/28 13:36:56;;;;;;;;;;;11.00;98.00;;;;;;5022106;28;20130;-79
2023/12/28 13:39:22;;;;;;;;;;;11.00;97.70;;;;;;5037835;28;19909;-80
2023/12/28 13:41:48;;;;;;;;;;;11.20;97.10;;;;;;5037816;28;19920;-80
2023/12/28 13:44:13;;;;;;;;;;;11.20;96.90;;;;;;5022832;28;19913;-80
2023/12/28 13:46:39;;;;;;;;;;;11.40;96.80;;;;;;5022538;28;20388;-82
2023/12/28 13:49:06;;;;;;;;;;;11.40;96.40;;;;;;5016497;28;20712;-81
2023/12/28 13:51:31;;;;;;;;;;;11.40;96.40;;;;;;5016861;28;20020;-80
2023/12/28 13:53:57;;;;;;;;;;;11.50;95.80;;;;;;5028555;28;19915;-80
2023/12/28 13:56:23;;;;;;;;;;;11.50;95.80;;;;;;5028767;28;19943;-80
2023/12/28 13:58:48;;;;;;;;;;;11.50;95.90;;;;;;5029087;28;19909;-79
2023/12/28 14:01:14;;;;;;;;;;;11.50;95.60;;;;;;5028532;28;20690;-80
2023/12/28 14:03:40;;;;;;;;;;;11.50;95.60;;;;;;5023550;28;19920;-80
2023/12/28 14:06:06;;;;;;;;;;;11.30;95.70;;;;;;5021855;28;19919;-81
2023/12/28 14:08:32;;;;;;;;;;;11.20;96.30;;;;;;5028513;28;19916;-82
2023/12/28 14:10:57;;;;;;;;;;;11.20;96.30;;;;;;5028793;28;20430;-80
2023/12/28 14:13:23;;;;;;;;;;;11.30;96.30;;;;;;5023714;28;19913;-80
2023/12/28 14:15:48;;;;;;;;;;;11.30;96.30;;;;;;5028453;28;19909;-80
2023/12/28 14:18:14;;;;;;;;;;;11.30;96.20;;;;;;5028283;28;20763;-79